CheckWX is a tool to help pilots better visualize weather data.  It is not intended as a substitute for an official pre-flight weather briefing.

05:14:41 UTC

KMCD METAR
Mackinac Island Airport
Mackinac Island, Michigan, USA
Current

19 mins ago

KMCD 240456Z AUTO 10018G26KT 3SM BR OVC004 00/00 A2960 RMK AO2 T10021002
Observed
Feb-24 @ 04:56 UTC
Wind
  • 100° at 18 KTS
  • Gusting to 26 KTS
Visibility
3 SM
Flight Rules
LIFR
Conditions
Mist
Cloud Levels
  • Overcast at 400' AGL
Temperature
-0°C / 32°F
Dewpoint
-0°C / 32°F
Humidity
100%
Altimeter
29.6" Hg
Pressure
1002.42 hPa
Previous

39 mins ago

KMCD 240436Z AUTO 10018G27KT 3SM BR OVC004 00/00 A2961 RMK AO2 T10031003
Observed
Feb-24 @ 04:36 UTC
Wind
  • 100° at 18 KTS
  • Gusting to 27 KTS
Visibility
3 SM
Flight Rules
LIFR
Conditions
Mist
Cloud Levels
  • Overcast at 400' AGL
Temperature
-0°C / 32°F
Dewpoint
-0°C / 32°F
Humidity
100%
Altimeter
29.61" Hg
Pressure
1002.72 hPa
Previous

60 mins ago

KMCD 240415Z AUTO 10016G28KT 3SM BR OVC004 00/00 A2965 RMK AO2 T10041004
Observed
Feb-24 @ 04:15 UTC
Wind
  • 100° at 16 KTS
  • Gusting to 28 KTS
Visibility
3 SM
Flight Rules
LIFR
Conditions
Mist
Cloud Levels
  • Overcast at 400' AGL
Temperature
-0°C / 32°F
Dewpoint
-0°C / 32°F
Humidity
100%
Altimeter
29.65" Hg
Pressure
1004.02 hPa